createdAt,value
2018-08-22T00:01:10.861Z,3.47
2018-08-22T00:03:38.552Z,2.70
2018-08-22T00:06:06.137Z,2.17
2018-08-22T00:08:39.482Z,3.17
2018-08-22T00:11:07.096Z,2.87
2018-08-22T00:13:34.777Z,4.57
2018-08-22T00:16:02.640Z,2.93
2018-08-22T00:18:30.245Z,3.20
2018-08-22T00:20:57.841Z,3.10
2018-08-22T00:23:25.412Z,3.63
2018-08-22T00:25:53.081Z,7.93
2018-08-22T00:28:20.693Z,3.17
2018-08-22T00:30:48.285Z,4.17
2018-08-22T00:33:15.825Z,4.07
2018-08-22T00:35:43.655Z,3.63
2018-08-22T00:38:11.504Z,4.27
2018-08-22T00:40:39.115Z,3.97
2018-08-22T00:43:06.651Z,4.47
2018-08-22T00:45:34.229Z,3.33
2018-08-22T00:48:01.791Z,3.17
2018-08-22T00:50:29.332Z,3.70
2018-08-22T00:52:56.897Z,4.17
2018-08-22T00:55:24.465Z,4.00
2018-08-22T00:57:52.053Z,3.60
2018-08-22T01:00:19.605Z,4.67
2018-08-22T01:02:47.108Z,3.47
2018-08-22T01:05:14.777Z,3.97
2018-08-22T01:07:42.327Z,3.80
2018-08-22T01:10:09.963Z,6.23
2018-08-22T01:12:37.941Z,2.97
2018-08-22T01:15:05.586Z,4.60
2018-08-22T01:17:33.476Z,3.20
2018-08-22T01:20:01.036Z,4.47
2018-08-22T01:22:28.719Z,3.30
2018-08-22T01:24:56.306Z,4.73
2018-08-22T01:27:23.877Z,4.43
2018-08-22T01:29:54.138Z,4.00
2018-08-22T01:32:22.092Z,3.67
2018-08-22T01:34:50.161Z,4.73
2018-08-22T01:37:17.765Z,7.30
2018-08-22T01:39:45.780Z,4.20
2018-08-22T01:42:13.304Z,5.73
2018-08-22T01:44:40.921Z,3.37
2018-08-22T01:47:08.473Z,3.67
2018-08-22T01:49:36.004Z,4.13
2018-08-22T01:52:03.639Z,3.20
2018-08-22T01:54:31.210Z,2.80
2018-08-22T01:56:58.782Z,5.57
2018-08-22T01:59:26.360Z,3.80
2018-08-22T02:01:53.996Z,4.80
2018-08-22T02:04:21.675Z,3.47
2018-08-22T02:06:49.464Z,3.20
2018-08-22T02:09:16.973Z,3.50
2018-08-22T02:11:44.544Z,3.10
2018-08-22T02:14:12.151Z,4.37
2018-08-22T02:16:39.862Z,3.63
2018-08-22T02:19:08.664Z,4.03
2018-08-22T02:21:36.328Z,5.53
2018-08-22T02:24:03.928Z,4.17
2018-08-22T02:26:31.757Z,4.90
2018-08-22T02:28:59.312Z,4.17
2018-08-22T02:31:26.869Z,4.10
2018-08-22T02:33:54.409Z,3.90
2018-08-22T02:36:21.976Z,5.30
2018-08-22T02:38:49.741Z,4.90
2018-08-22T02:41:17.283Z,6.37
2018-08-22T02:43:44.865Z,4.43
2018-08-22T02:46:12.564Z,3.90
2018-08-22T02:48:45.797Z,6.27
2018-08-22T02:51:13.506Z,4.10
2018-08-22T02:53:41.154Z,4.13
2018-08-22T02:56:08.922Z,5.90
2018-08-22T02:58:36.494Z,4.70
2018-08-22T03:01:04.156Z,5.90
2018-08-22T03:03:31.790Z,3.90
2018-08-22T03:05:59.448Z,4.33
2018-08-22T03:08:27.113Z,4.87
2018-08-22T03:10:54.722Z,4.00
2018-08-22T03:13:22.476Z,3.70
2018-08-22T03:15:50.104Z,5.27
2018-08-22T03:18:17.653Z,3.97
2018-08-22T03:20:45.282Z,4.20
2018-08-22T03:23:12.841Z,5.93
2018-08-22T03:25:40.760Z,4.20
2018-08-22T03:28:08.337Z,4.90
2018-08-22T03:30:35.924Z,4.33
2018-08-22T03:33:03.745Z,4.53
2018-08-22T03:35:31.364Z,4.77
2018-08-22T03:37:58.917Z,6.00
2018-08-22T03:40:26.482Z,4.70
2018-08-22T03:42:54.013Z,4.40
2018-08-22T03:45:21.598Z,4.37
2018-08-22T03:47:49.117Z,5.53
2018-08-22T03:50:16.734Z,7.07
2018-08-22T03:52:44.274Z,4.30
2018-08-22T03:55:11.889Z,5.30
2018-08-22T03:57:40.465Z,5.57
2018-08-22T04:00:08.062Z,6.20
2018-08-22T04:02:39.901Z,5.13
2018-08-22T04:05:07.579Z,7.33
2018-08-22T04:07:35.117Z,6.23
2018-08-22T04:10:02.911Z,4.70
2018-08-22T04:12:30.458Z,5.13
2018-08-22T04:14:58.017Z,8.23
2018-08-22T04:17:29.031Z,5.50
2018-08-22T04:19:56.607Z,7.17
2018-08-22T04:22:24.140Z,6.03
2018-08-22T04:24:51.709Z,6.37
2018-08-22T04:27:19.271Z,6.60
2018-08-22T04:29:46.893Z,8.43
2018-08-22T04:32:14.570Z,7.17
2018-08-22T04:34:42.152Z,6.93
2018-08-22T04:37:09.733Z,8.77
2018-08-22T04:39:37.317Z,6.97
2018-08-22T04:42:04.933Z,8.13
2018-08-22T04:44:32.502Z,7.57
2018-08-22T04:47:00.086Z,6.53
2018-08-22T04:49:27.661Z,5.23
2018-08-22T04:51:55.182Z,7.13
2018-08-22T04:54:22.812Z,7.73
2018-08-22T04:56:50.364Z,8.40
2018-08-22T04:59:18.083Z,7.23
2018-08-22T05:01:45.717Z,8.17
2018-08-22T05:04:13.286Z,6.97
2018-08-22T05:06:40.937Z,5.17
2018-08-22T05:09:09.123Z,10.87
2018-08-22T05:11:36.678Z,10.20
2018-08-22T05:14:04.410Z,6.60
2018-08-22T05:16:32.189Z,10.03
2018-08-22T05:18:59.728Z,9.40
2018-08-22T05:21:27.477Z,7.27
2018-08-22T05:23:55.079Z,8.30
2018-08-22T05:26:22.654Z,7.10
2018-08-22T05:28:50.252Z,7.47
2018-08-22T05:31:17.804Z,9.30
2018-08-22T05:33:45.357Z,13.33
2018-08-22T05:36:12.954Z,12.77
2018-08-22T05:38:40.529Z,10.93
2018-08-22T05:41:08.170Z,15.33
2018-08-22T05:43:35.728Z,17.83
2018-08-22T05:46:03.441Z,9.17
2018-08-22T05:48:31.161Z,9.37
2018-08-22T05:50:58.996Z,11.37
2018-08-22T05:53:26.672Z,9.80
2018-08-22T05:55:54.448Z,5.70
2018-08-22T05:58:22.108Z,8.93
2018-08-22T06:00:49.832Z,7.47
2018-08-22T06:03:17.441Z,7.47
2018-08-22T06:05:45.090Z,9.53
2018-08-22T06:08:12.817Z,6.07
2018-08-22T06:10:40.618Z,7.60
2018-08-22T06:13:08.390Z,7.47
2018-08-22T06:15:36.142Z,5.83
2018-08-22T06:18:03.801Z,8.80
2018-08-22T06:20:31.381Z,7.83
2018-08-22T06:22:59.104Z,6.37
2018-08-22T06:25:26.788Z,5.33
2018-08-22T06:27:54.541Z,6.83
2018-08-22T06:30:22.089Z,4.70
2018-08-22T06:32:49.806Z,5.47
2018-08-22T06:35:17.381Z,6.00
2018-08-22T06:37:44.994Z,4.53
2018-08-22T06:40:12.554Z,5.27
2018-08-22T06:42:40.170Z,6.47
2018-08-22T06:45:08.484Z,7.77
2018-08-22T06:47:37.360Z,5.23
2018-08-22T06:50:05.017Z,5.03
2018-08-22T06:52:32.569Z,5.33
2018-08-22T06:55:00.140Z,6.33
2018-08-22T06:57:27.841Z,6.23
2018-08-22T06:59:55.374Z,4.27
2018-08-22T07:02:22.999Z,4.57
2018-08-22T07:04:50.660Z,4.17
2018-08-22T07:07:18.198Z,7.17
2018-08-22T07:09:45.809Z,6.37
2018-08-22T07:12:13.350Z,6.60
2018-08-22T07:14:41.035Z,6.13
2018-08-22T07:17:08.725Z,7.23
2018-08-22T07:19:36.452Z,6.03
2018-08-22T07:22:04.388Z,3.90
2018-08-22T07:24:32.110Z,4.40
2018-08-22T07:26:59.822Z,6.20
2018-08-22T07:29:27.423Z,6.53
2018-08-22T07:31:55.175Z,4.73
2018-08-22T07:34:22.732Z,7.83
2018-08-22T07:36:50.345Z,5.97
2018-08-22T07:39:17.997Z,4.10
2018-08-22T07:41:45.610Z,4.53
2018-08-22T07:44:13.282Z,6.10
2018-08-22T07:46:40.971Z,3.85
2018-08-22T07:49:08.651Z,4.15
2018-08-22T07:51:36.486Z,4.92
2018-08-22T07:54:04.243Z,6.35
2018-08-22T07:56:31.802Z,7.12
2018-08-22T07:59:11.138Z,5.30
2018-08-22T08:01:39.120Z,4.55
2018-08-22T08:04:08.508Z,5.12
2018-08-22T08:06:36.146Z,5.72
2018-08-22T08:09:06.893Z,8.30
2018-08-22T08:11:34.671Z,6.83
2018-08-22T08:14:02.314Z,5.53
2018-08-22T08:16:29.946Z,6.50
2018-08-22T08:18:57.835Z,4.70
2018-08-22T08:21:25.576Z,5.10
2018-08-22T08:23:53.404Z,6.58
2018-08-22T08:26:20.998Z,4.90
2018-08-22T08:28:48.598Z,5.33
2018-08-22T08:31:16.287Z,4.65
2018-08-22T08:33:43.869Z,3.87
2018-08-22T08:36:11.551Z,7.80
2018-08-22T08:38:39.282Z,5.75
2018-08-22T08:41:07.166Z,5.17
2018-08-22T08:43:35.137Z,4.83
2018-08-22T08:46:03.060Z,7.67
2018-08-22T08:48:30.659Z,5.95
2018-08-22T08:50:58.330Z,6.90
2018-08-22T08:53:25.910Z,4.87
2018-08-22T08:55:53.514Z,4.90
2018-08-22T08:58:22.303Z,5.97
2018-08-22T09:00:49.924Z,5.85
2018-08-22T09:03:17.603Z,5.12
2018-08-22T09:05:45.292Z,6.40
2018-08-22T09:08:12.852Z,5.95
2018-08-22T09:10:40.538Z,5.50
2018-08-22T09:13:09.512Z,5.62
2018-08-22T09:15:37.155Z,4.95
2018-08-22T09:18:04.795Z,7.90
2018-08-22T09:20:32.433Z,5.70
2018-08-22T09:23:00.078Z,7.53
2018-08-22T09:25:27.734Z,6.17
2018-08-22T09:27:55.374Z,6.17
2018-08-22T09:30:23.051Z,5.33
2018-08-22T09:32:50.637Z,6.15
2018-08-22T09:35:18.223Z,6.35
2018-08-22T09:37:45.872Z,9.18
2018-08-22T09:40:13.533Z,6.40
2018-08-22T09:42:41.329Z,5.67
2018-08-22T09:45:09.247Z,6.50
2018-08-22T09:47:37.055Z,6.28
2018-08-22T09:50:05.092Z,5.90
2018-08-22T09:52:32.762Z,6.22
2018-08-22T09:55:02.015Z,6.40
2018-08-22T09:57:30.230Z,9.58
2018-08-22T09:59:57.883Z,6.17
2018-08-22T10:02:25.491Z,10.08
2018-08-22T10:04:53.533Z,8.33
2018-08-22T10:07:21.226Z,7.03
2018-08-22T10:09:48.809Z,8.75
2018-08-22T10:12:17.009Z,8.85
2018-08-22T10:14:44.645Z,6.65
2018-08-22T10:17:12.265Z,7.58
2018-08-22T10:19:39.916Z,9.55
2018-08-22T10:22:07.518Z,9.63
2018-08-22T10:24:35.102Z,10.32
2018-08-22T10:27:02.804Z,12.18
2018-08-22T10:29:30.362Z,8.55
2018-08-22T10:31:57.964Z,8.33
2018-08-22T10:34:25.580Z,13.08
2018-08-22T10:36:53.189Z,8.45
2018-08-22T10:39:20.771Z,8.35
2018-08-22T10:41:48.402Z,7.97
2018-08-22T10:44:16.149Z,9.85
2018-08-22T10:46:43.688Z,11.33
2018-08-22T10:49:11.374Z,10.30
2018-08-22T10:51:38.952Z,9.60
2018-08-22T10:54:06.709Z,9.95
2018-08-22T10:56:34.321Z,12.00
2018-08-22T10:59:01.946Z,14.55
2018-08-22T11:01:29.746Z,9.88
2018-08-22T11:03:57.363Z,9.50
2018-08-22T11:06:24.974Z,10.43
2018-08-22T11:08:52.583Z,11.95
2018-08-22T11:11:20.177Z,12.65
2018-08-22T11:13:47.782Z,12.82
2018-08-22T11:16:15.436Z,11.33
2018-08-22T11:18:43.083Z,10.38
2018-08-22T11:21:22.037Z,10.32
2018-08-22T11:24:01.117Z,10.60
2018-08-22T11:26:40.137Z,11.45
2018-08-22T11:29:18.922Z,10.55
2018-08-22T11:31:57.821Z,11.38
2018-08-22T11:34:36.688Z,9.33
2018-08-22T11:37:06.373Z,9.70
2018-08-22T11:39:34.095Z,9.13
2018-08-22T11:42:02.062Z,10.28
2018-08-22T11:44:29.935Z,9.30
2018-08-22T11:46:57.553Z,11.43
2018-08-22T11:49:25.252Z,10.75
2018-08-22T11:51:52.842Z,8.65
2018-08-22T11:54:20.478Z,9.00
2018-08-22T11:56:48.094Z,9.43
2018-08-22T11:59:15.718Z,9.95
2018-08-22T12:01:43.309Z,9.18
2018-08-22T12:04:10.952Z,8.85
2018-08-22T12:06:38.766Z,9.48
2018-08-22T12:09:08.310Z,10.45
2018-08-22T12:11:36.055Z,12.88
2018-08-22T12:14:03.746Z,11.43
2018-08-22T12:16:31.477Z,10.13
2018-08-22T12:18:59.069Z,10.38
2018-08-22T12:21:26.933Z,11.83
2018-08-22T12:23:54.590Z,10.60
2018-08-22T12:26:22.200Z,10.43
2018-08-22T12:28:49.981Z,11.38
2018-08-22T12:31:17.666Z,10.08
2018-08-22T12:33:45.292Z,12.75
2018-08-22T12:36:12.877Z,12.43
2018-08-22T12:38:40.481Z,9.63
2018-08-22T12:41:08.406Z,13.43
2018-08-22T12:43:36.026Z,11.50
2018-08-22T12:46:03.803Z,12.07
2018-08-22T12:48:31.642Z,11.90
2018-08-22T12:50:59.294Z,12.28
2018-08-22T12:53:27.401Z,13.48
2018-08-22T12:55:55.030Z,11.03
2018-08-22T12:58:22.668Z,10.85
2018-08-22T13:00:50.256Z,12.35
2018-08-22T13:03:18.040Z,9.63
2018-08-22T13:05:45.746Z,10.82
2018-08-22T13:08:13.333Z,11.08
2018-08-22T13:10:40.978Z,14.85
2018-08-22T13:13:08.569Z,11.05
2018-08-22T13:15:36.369Z,11.25
2018-08-22T13:18:04.417Z,8.85
2018-08-22T13:20:32.041Z,8.98
2018-08-22T13:22:59.652Z,12.00
2018-08-22T13:25:27.337Z,12.98
2018-08-22T13:27:54.950Z,12.70
2018-08-22T13:30:22.749Z,11.45
2018-08-22T13:32:50.424Z,11.80
2018-08-22T13:35:18.089Z,13.75
2018-08-22T13:37:45.669Z,13.58
2018-08-22T13:40:13.466Z,11.25
2018-08-22T13:42:44.325Z,13.00
2018-08-22T13:45:12.064Z,15.18
2018-08-22T13:47:39.971Z,12.53
2018-08-22T13:50:07.646Z,11.15
2018-08-22T13:52:35.280Z,15.18
2018-08-22T13:55:03.107Z,12.28
2018-08-22T13:57:30.730Z,14.38
2018-08-22T13:59:58.464Z,11.93
2018-08-22T14:02:26.147Z,13.85
2018-08-22T14:04:53.893Z,12.73
2018-08-22T14:07:21.601Z,13.10
2018-08-22T14:09:49.366Z,11.63
2018-08-22T14:12:17.021Z,10.88
2018-08-22T14:14:45.082Z,11.20
2018-08-22T14:17:13.463Z,12.23
2018-08-22T14:19:41.444Z,12.58
2018-08-22T14:22:12.813Z,13.85
2018-08-22T14:24:40.900Z,11.65
2018-08-22T14:27:08.858Z,15.50
2018-08-22T14:29:38.368Z,12.95
2018-08-22T14:32:06.215Z,14.18
2018-08-22T14:34:34.324Z,16.73
2018-08-22T14:37:02.255Z,13.80
2018-08-22T14:39:30.129Z,13.85
2018-08-22T14:41:58.133Z,17.98
2018-08-22T14:44:26.250Z,17.42
2018-08-22T14:46:54.182Z,15.28
2018-08-22T14:49:21.981Z,15.10
2018-08-22T14:51:49.911Z,13.45
2018-08-22T14:54:18.008Z,12.35
2018-08-22T14:56:45.878Z,13.95
2018-08-22T14:59:13.827Z,12.33
2018-08-22T15:01:41.959Z,14.45
2018-08-22T15:04:09.874Z,15.95
2018-08-22T15:06:37.872Z,13.18
2018-08-22T15:09:12.416Z,15.32
2018-08-22T15:11:40.280Z,21.85
2018-08-22T15:14:09.303Z,20.52
2018-08-22T15:16:37.230Z,24.90
2018-08-22T15:19:05.417Z,22.05
2018-08-22T15:21:33.346Z,25.30
2018-08-22T15:24:01.402Z,22.25
2018-08-22T15:29:09.095Z,26.77
2018-08-22T15:31:36.799Z,23.83
2018-08-22T15:34:05.178Z,22.10
2018-08-22T15:36:34.914Z,17.70
2018-08-22T15:39:02.915Z,21.93
2018-08-22T15:41:30.809Z,17.57
2018-08-22T15:44:00.566Z,20.32
2018-08-22T15:46:28.207Z,19.80
2018-08-22T15:48:55.968Z,21.30
2018-08-22T15:51:23.633Z,22.77
2018-08-22T15:54:05.966Z,22.20
2018-08-22T15:56:33.915Z,22.32
2018-08-22T15:59:01.602Z,21.33
2018-08-22T16:01:29.406Z,23.12
2018-08-22T16:03:57.117Z,21.12
2018-08-22T16:06:24.841Z,23.55
2018-08-22T16:08:52.663Z,22.85
2018-08-22T16:11:20.592Z,26.82
2018-08-22T16:13:48.231Z,23.45
2018-08-22T16:16:15.910Z,25.72
2018-08-22T16:18:43.667Z,23.45
2018-08-22T16:21:11.426Z,18.90
2018-08-22T16:23:39.161Z,19.73
2018-08-22T16:26:06.883Z,21.45
2018-08-22T16:28:48.949Z,25.57
2018-08-22T16:31:16.866Z,20.92
2018-08-22T16:33:44.378Z,21.25
2018-08-22T16:36:19.449Z,18.37
2018-08-22T16:38:47.112Z,18.00
2018-08-22T16:41:16.570Z,18.02
2018-08-22T16:46:23.520Z,18.00
2018-08-22T16:48:52.607Z,16.50
2018-08-22T16:51:21.505Z,18.15
2018-08-22T16:53:58.448Z,17.73
2018-08-22T16:56:26.249Z,18.32
2018-08-22T16:58:58.228Z,20.52
2018-08-22T17:01:25.914Z,18.73
2018-08-22T17:03:53.620Z,19.10
2018-08-22T17:06:25.177Z,19.55
2018-08-22T17:08:52.847Z,18.17
2018-08-22T17:11:20.593Z,19.92
2018-08-22T17:13:50.302Z,18.92
2018-08-22T17:16:19.322Z,21.70
2018-08-22T17:18:47.374Z,22.10
2018-08-22T17:21:15.114Z,21.82
2018-08-22T17:23:44.072Z,18.25
2018-08-22T17:26:14.755Z,19.52
2018-08-22T17:28:44.747Z,20.92
2018-08-22T17:31:12.949Z,21.50
2018-08-22T17:33:47.281Z,22.32
2018-08-22T17:36:15.028Z,23.67
2018-08-22T17:38:43.727Z,22.32
2018-08-22T17:41:11.418Z,19.95
2018-08-22T17:44:21.329Z,19.37
2018-08-22T17:46:50.415Z,20.63
2018-08-22T17:49:18.087Z,21.97
2018-08-22T17:51:55.637Z,18.63
2018-08-22T17:54:23.513Z,17.97
2018-08-22T17:57:23.933Z,19.57
2018-08-22T17:59:53.078Z,19.37
2018-08-22T18:02:20.797Z,19.20
2018-08-22T18:04:59.382Z,16.83
2018-08-22T18:07:27.154Z,18.17
2018-08-22T18:09:54.939Z,16.20
2018-08-22T18:12:24.335Z,16.07
2018-08-22T18:14:52.329Z,17.30
2018-08-22T18:17:20.391Z,17.73
2018-08-22T18:19:48.246Z,19.13
2018-08-22T18:22:16.270Z,20.23
2018-08-22T18:24:49.683Z,19.00
2018-08-22T18:27:17.440Z,22.50
2018-08-22T18:29:45.918Z,21.80
2018-08-22T18:32:14.045Z,21.73
2018-08-22T18:34:55.184Z,20.40
2018-08-22T18:37:23.203Z,22.57
2018-08-22T18:40:02.261Z,23.50
2018-08-22T18:42:29.914Z,23.00
2018-08-22T18:44:57.583Z,26.20
2018-08-22T18:47:25.624Z,20.33
2018-08-22T18:49:53.833Z,21.60
2018-08-22T18:52:21.517Z,22.27
2018-08-22T18:54:50.311Z,23.63
2018-08-22T18:57:18.193Z,24.23
2018-08-22T18:59:46.146Z,26.97
2018-08-22T19:02:13.758Z,25.20
2018-08-22T19:04:41.689Z,25.20
2018-08-22T19:07:09.349Z,25.13
2018-08-22T19:09:36.991Z,22.17
2018-08-22T19:12:04.853Z,25.03
2018-08-22T19:14:44.137Z,28.53
2018-08-22T19:17:15.083Z,27.47
2018-08-22T19:19:43.559Z,26.73
2018-08-22T19:22:13.616Z,25.27
2018-08-22T19:24:50.388Z,23.73
2018-08-22T19:27:18.060Z,25.77
2018-08-22T19:29:45.671Z,26.37
2018-08-22T19:32:13.391Z,27.07
2018-08-22T19:34:42.978Z,36.43
2018-08-22T19:37:10.955Z,37.27
2018-08-22T19:39:47.691Z,37.53
2018-08-22T19:42:15.402Z,37.20
2018-08-22T19:44:43.051Z,31.73
2018-08-22T19:47:11.076Z,30.70
2018-08-22T19:49:38.725Z,31.27
2018-08-22T19:52:06.391Z,31.63
2018-08-22T19:54:34.080Z,27.97
2018-08-22T19:57:01.733Z,27.10
2018-08-22T19:59:29.348Z,27.83
2018-08-22T20:01:57.101Z,28.07
2018-08-22T20:04:24.837Z,28.00
2018-08-22T20:06:52.477Z,26.60
2018-08-22T20:09:20.404Z,27.57
2018-08-22T20:11:48.132Z,27.33
2018-08-22T20:14:15.981Z,25.93
2018-08-22T20:16:43.890Z,31.63
2018-08-22T20:19:11.731Z,28.20
2018-08-22T20:21:40.818Z,26.40
2018-08-22T20:24:11.205Z,29.43
2018-08-22T20:26:48.357Z,24.47
2018-08-22T20:29:16.091Z,25.77
2018-08-22T20:31:43.681Z,28.10
2018-08-22T20:34:13.182Z,30.50
2018-08-22T20:36:44.204Z,27.87
2018-08-22T20:39:12.582Z,30.07
2018-08-22T20:41:40.876Z,32.43
2018-08-22T20:44:11.163Z,29.23
2018-08-22T20:46:39.181Z,29.07
2018-08-22T20:49:06.877Z,29.93
2018-08-22T20:51:34.600Z,30.23
2018-08-22T20:54:09.617Z,31.23
2018-08-22T20:56:40.202Z,34.17
2018-08-22T20:59:07.861Z,31.03
2018-08-22T21:01:35.475Z,38.57
2018-08-22T21:04:03.214Z,32.80
2018-08-22T21:06:30.834Z,31.03
2018-08-22T21:08:58.900Z,29.90
2018-08-22T21:11:26.560Z,30.97
2018-08-22T21:13:55.064Z,31.03
2018-08-22T21:16:22.659Z,28.77
2018-08-22T21:18:50.372Z,28.97
2018-08-22T21:21:24.305Z,32.97
2018-08-22T21:23:52.141Z,33.77
2018-08-22T21:26:34.052Z,30.47
2018-08-22T21:29:01.771Z,30.10
2018-08-22T21:31:29.579Z,33.03
2018-08-22T21:33:57.510Z,37.17
2018-08-22T21:36:25.239Z,36.60
2018-08-22T21:38:53.191Z,38.37
2018-08-22T21:41:20.814Z,37.07
2018-08-22T21:43:48.405Z,30.87
2018-08-22T21:46:16.075Z,30.27
2018-08-22T21:48:43.725Z,36.93
2018-08-22T21:51:11.309Z,34.20
2018-08-22T21:53:39.034Z,32.70
2018-08-22T21:56:06.645Z,38.10
2018-08-22T21:58:34.459Z,33.23
2018-08-22T22:01:04.503Z,40.60
2018-08-22T22:03:32.391Z,37.30
2018-08-22T22:06:01.340Z,34.40
2018-08-22T22:08:29.061Z,32.43
2018-08-22T22:10:59.026Z,35.73
2018-08-22T22:13:26.812Z,34.37
2018-08-22T22:15:58.574Z,36.37
2018-08-22T22:18:26.366Z,33.50
2018-08-22T22:21:06.373Z,36.53
2018-08-22T22:23:39.223Z,35.67
2018-08-22T22:26:06.835Z,36.30
2018-08-22T22:28:38.179Z,34.43
2018-08-22T22:31:12.878Z,38.50
2018-08-22T22:33:45.856Z,37.63
2018-08-22T22:36:14.113Z,37.57
2018-08-22T22:38:41.750Z,38.17
2018-08-22T22:41:09.365Z,37.10
2018-08-22T22:43:37.016Z,44.17
2018-08-22T22:46:04.956Z,40.53
2018-08-22T22:48:38.818Z,40.27
2018-08-22T22:51:07.371Z,36.67
2018-08-22T22:53:35.332Z,46.27
2018-08-22T22:56:02.962Z,40.33
2018-08-22T22:58:31.857Z,40.13
2018-08-22T23:00:59.464Z,41.27
2018-08-22T23:03:27.150Z,45.90
2018-08-22T23:05:54.769Z,45.07
2018-08-22T23:08:22.370Z,39.10
2018-08-22T23:10:49.997Z,39.33
2018-08-22T23:13:17.631Z,43.33
2018-08-22T23:15:45.567Z,40.43
2018-08-22T23:18:13.179Z,44.73
2018-08-22T23:20:42.497Z,42.93
2018-08-22T23:23:41.944Z,40.20
2018-08-22T23:26:15.339Z,41.27
2018-08-22T23:28:43.985Z,39.60
2018-08-22T23:31:15.886Z,41.53
2018-08-22T23:33:43.544Z,45.67
2018-08-22T23:36:11.121Z,42.63
2018-08-22T23:38:38.747Z,43.03
2018-08-22T23:41:06.341Z,44.50
2018-08-22T23:43:40.179Z,43.87
2018-08-22T23:46:09.271Z,41.73
2018-08-22T23:48:37.569Z,41.93
2018-08-22T23:51:07.889Z,42.07
2018-08-22T23:53:52.377Z,41.10
2018-08-22T23:56:28.274Z,44.40
2018-08-22T23:58:56.437Z,38.47
